createdAt,value
2019-04-30T00:02:15.868Z,16.48
2019-04-30T00:04:49.006Z,17.05
2019-04-30T00:07:19.345Z,18.17
2019-04-30T00:09:53.995Z,17.95
2019-04-30T00:12:21.647Z,17.73
2019-04-30T00:14:51.817Z,18.17
2019-04-30T00:17:25.547Z,19.30
2019-04-30T00:19:59.763Z,18.23
2019-04-30T00:22:33.531Z,18.52
2019-04-30T00:24:58.940Z,18.62
2019-04-30T00:27:30.265Z,18.12
2019-04-30T00:30:07.368Z,18.37
2019-04-30T00:32:38.834Z,18.12
2019-04-30T00:35:07.335Z,19.67
2019-04-30T00:37:37.460Z,18.77
2019-04-30T00:40:07.854Z,18.92
2019-04-30T00:42:37.870Z,18.15
2019-04-30T00:45:09.830Z,19.35
2019-04-30T00:47:44.472Z,18.12
2019-04-30T00:50:14.863Z,18.50
2019-04-30T00:52:45.780Z,19.42
2019-04-30T00:55:15.856Z,18.90
2019-04-30T00:57:47.401Z,19.45
2019-04-30T01:00:25.311Z,17.48
2019-04-30T01:03:09.360Z,18.82
2019-04-30T01:05:43.544Z,19.10
2019-04-30T01:08:11.550Z,18.10
2019-04-30T01:10:41.522Z,19.48
2019-04-30T01:13:12.124Z,18.73
2019-04-30T01:15:44.001Z,18.17
2019-04-30T01:18:14.065Z,19.12
2019-04-30T01:20:44.348Z,18.85
2019-04-30T01:23:16.217Z,19.42
2019-04-30T01:25:50.023Z,18.05
2019-04-30T01:28:23.107Z,19.92
2019-04-30T01:30:53.976Z,19.30
2019-04-30T01:33:28.475Z,18.82
2019-04-30T01:35:59.701Z,18.50
2019-04-30T01:38:29.837Z,17.52
2019-04-30T01:40:59.855Z,19.32
2019-04-30T01:43:33.104Z,19.05
2019-04-30T01:46:08.432Z,19.27
2019-04-30T01:48:33.280Z,19.32
2019-04-30T01:51:03.229Z,19.25
2019-04-30T01:53:33.373Z,18.02
2019-04-30T01:56:16.324Z,19.62
2019-04-30T01:58:53.304Z,18.15
2019-04-30T02:01:24.329Z,18.32
2019-04-30T02:03:54.546Z,19.35
2019-04-30T02:06:26.309Z,18.65
2019-04-30T02:08:56.829Z,18.45
2019-04-30T02:11:28.846Z,18.87
2019-04-30T02:13:59.554Z,19.00
2019-04-30T02:16:31.096Z,17.48
2019-04-30T02:19:01.511Z,18.02
2019-04-30T02:21:33.313Z,18.23
2019-04-30T02:24:03.963Z,18.77
2019-04-30T02:26:33.946Z,17.92
2019-04-30T02:29:03.941Z,17.67
2019-04-30T02:31:34.032Z,16.90
2019-04-30T02:34:10.927Z,17.77
2019-04-30T02:36:56.450Z,17.45
2019-04-30T02:39:30.113Z,18.85
2019-04-30T02:41:59.908Z,18.98
2019-04-30T02:44:30.844Z,17.73
2019-04-30T02:47:02.449Z,17.42
2019-04-30T02:49:33.481Z,17.50
2019-04-30T02:52:04.538Z,16.93
2019-04-30T02:54:39.435Z,18.15
2019-04-30T02:57:15.251Z,16.05
2019-04-30T03:00:02.914Z,17.52
2019-04-30T03:02:34.527Z,17.30
2019-04-30T03:05:06.919Z,16.95
2019-04-30T03:07:36.901Z,17.50
2019-04-30T03:10:10.092Z,16.87
2019-04-30T03:12:40.532Z,17.67
2019-04-30T03:15:11.539Z,15.58
2019-04-30T03:18:02.956Z,16.73
2019-04-30T03:20:42.148Z,15.98
2019-04-30T03:23:12.025Z,16.85
2019-04-30T03:25:42.006Z,16.90
2019-04-30T03:28:11.976Z,15.75
2019-04-30T03:30:42.663Z,15.65
2019-04-30T03:33:13.521Z,17.30
2019-04-30T03:35:47.731Z,16.67
2019-04-30T03:38:15.780Z,16.75
2019-04-30T03:40:46.117Z,14.70
2019-04-30T03:43:16.085Z,15.60
2019-04-30T03:45:46.092Z,15.18
2019-04-30T03:48:16.058Z,16.25
2019-04-30T03:50:53.371Z,15.18
2019-04-30T03:53:20.074Z,15.45
2019-04-30T03:55:50.642Z,15.83
2019-04-30T03:58:21.390Z,15.65
2019-04-30T04:01:00.893Z,15.53
2019-04-30T04:03:34.243Z,15.88
2019-04-30T04:06:21.569Z,16.00
2019-04-30T04:09:00.271Z,15.20
2019-04-30T04:11:35.492Z,14.85
2019-04-30T04:14:05.519Z,16.05
2019-04-30T04:16:35.596Z,15.38
2019-04-30T04:19:05.610Z,15.63
2019-04-30T04:21:35.631Z,16.45
2019-04-30T04:24:05.675Z,15.60
2019-04-30T04:26:43.368Z,15.40
2019-04-30T04:29:12.485Z,15.18
2019-04-30T04:31:41.897Z,15.53
2019-04-30T04:34:11.954Z,16.12
2019-04-30T04:36:43.533Z,15.10
2019-04-30T04:39:13.848Z,16.00
2019-04-30T04:41:44.395Z,16.02
2019-04-30T04:44:14.778Z,16.15
2019-04-30T04:46:44.770Z,14.83
2019-04-30T04:49:14.734Z,15.38
2019-04-30T04:51:44.637Z,15.18
2019-04-30T04:54:14.534Z,16.15
2019-04-30T04:56:44.513Z,16.05
2019-04-30T04:59:14.530Z,16.73
2019-04-30T05:01:44.443Z,16.10
2019-04-30T05:04:14.312Z,15.65
2019-04-30T05:06:44.297Z,15.65
2019-04-30T05:09:15.069Z,15.13
2019-04-30T05:11:45.085Z,16.02
2019-04-30T05:14:14.970Z,16.37
2019-04-30T05:16:48.799Z,14.28
2019-04-30T05:19:19.021Z,16.87
2019-04-30T05:21:51.742Z,15.75
2019-04-30T05:24:21.769Z,15.60
2019-04-30T05:26:51.920Z,15.88
2019-04-30T05:29:22.408Z,15.83
2019-04-30T05:31:52.552Z,15.38
2019-04-30T05:34:22.556Z,14.43
2019-04-30T05:36:52.639Z,15.95
2019-04-30T05:39:22.915Z,15.25
2019-04-30T05:41:53.770Z,15.72
2019-04-30T05:44:23.684Z,15.48
2019-04-30T05:46:53.679Z,16.10
2019-04-30T05:49:23.677Z,16.32
2019-04-30T05:51:55.937Z,15.13
2019-04-30T05:54:25.315Z,15.90
2019-04-30T05:56:55.302Z,17.10
2019-04-30T05:59:25.292Z,16.32
2019-04-30T06:01:55.359Z,16.50
2019-04-30T06:04:25.468Z,15.98
2019-04-30T06:06:55.509Z,15.90
2019-04-30T06:09:50.408Z,15.50
2019-04-30T06:12:39.490Z,15.03
2019-04-30T06:15:19.229Z,15.53
2019-04-30T06:18:00.107Z,15.68
2019-04-30T06:20:23.337Z,16.10
2019-04-30T06:22:53.594Z,16.40
2019-04-30T06:25:31.792Z,15.88
2019-04-30T06:27:55.753Z,16.95
2019-04-30T06:30:26.237Z,15.50
2019-04-30T06:32:56.725Z,16.37
2019-04-30T06:35:26.899Z,15.63
2019-04-30T06:37:58.776Z,14.78
2019-04-30T06:40:29.459Z,14.75
2019-04-30T06:43:00.729Z,15.55
2019-04-30T06:45:32.570Z,12.45
2019-04-30T06:48:05.046Z,14.10
2019-04-30T06:50:35.079Z,14.07
2019-04-30T06:53:05.062Z,13.28
2019-04-30T06:55:35.113Z,12.63
2019-04-30T06:58:14.153Z,12.63
2019-04-30T07:00:40.049Z,12.88
2019-04-30T07:03:10.131Z,13.05
2019-04-30T07:05:40.143Z,12.68
2019-04-30T07:08:39.553Z,11.68
2019-04-30T07:11:22.758Z,11.68
2019-04-30T07:13:52.841Z,11.88
2019-04-30T07:16:23.122Z,12.33
2019-04-30T07:18:53.120Z,12.23
2019-04-30T07:21:23.061Z,11.95
2019-04-30T07:23:53.168Z,11.15
2019-04-30T07:26:24.651Z,12.50
2019-04-30T07:28:55.546Z,13.18
2019-04-30T07:31:26.765Z,12.70
2019-04-30T07:33:56.755Z,12.68
2019-04-30T07:36:43.237Z,13.98
2019-04-30T07:38:59.991Z,13.93
2019-04-30T07:41:31.255Z,13.03
2019-04-30T07:44:01.408Z,14.35
2019-04-30T07:46:35.184Z,12.15
2019-04-30T07:49:03.132Z,13.00
2019-04-30T07:51:37.794Z,13.80
2019-04-30T07:54:04.857Z,13.30
2019-04-30T07:56:38.081Z,13.43
2019-04-30T07:59:06.645Z,12.65
2019-04-30T08:01:36.639Z,13.32
2019-04-30T08:04:14.741Z,13.30
2019-04-30T08:06:44.857Z,14.05
2019-04-30T08:09:14.921Z,14.07
2019-04-30T08:11:45.238Z,12.82
2019-04-30T08:14:15.218Z,13.80
2019-04-30T08:16:45.194Z,12.55
2019-04-30T08:19:15.090Z,13.83
2019-04-30T08:21:45.150Z,13.22
2019-04-30T08:24:15.105Z,13.70
2019-04-30T08:26:45.094Z,13.10
2019-04-30T08:29:15.325Z,14.85
2019-04-30T08:31:45.741Z,13.40
2019-04-30T08:34:15.740Z,13.18
2019-04-30T08:36:45.878Z,12.78
2019-04-30T08:39:15.831Z,13.30
2019-04-30T08:41:45.824Z,12.82
2019-04-30T08:44:15.798Z,12.73
2019-04-30T08:46:46.078Z,12.35
2019-04-30T08:49:17.044Z,11.65
2019-04-30T08:51:49.041Z,11.15
2019-04-30T08:54:20.227Z,11.65
2019-04-30T08:56:50.458Z,11.73
2019-04-30T08:59:20.478Z,10.68
2019-04-30T09:01:50.488Z,11.05
2019-04-30T09:04:20.491Z,11.35
2019-04-30T09:06:50.583Z,11.35
2019-04-30T09:09:22.287Z,11.55
2019-04-30T09:11:55.558Z,11.88
2019-04-30T09:14:23.972Z,11.00
2019-04-30T09:16:54.050Z,11.80
2019-04-30T09:19:24.004Z,12.33
2019-04-30T09:21:54.015Z,12.03
2019-04-30T09:24:24.005Z,11.75
2019-04-30T09:26:53.934Z,10.10
2019-04-30T09:29:23.923Z,10.05
2019-04-30T09:31:53.973Z,10.55
2019-04-30T09:34:23.998Z,9.35
2019-04-30T09:36:54.004Z,11.43
2019-04-30T09:39:23.954Z,11.25
2019-04-30T09:41:53.946Z,10.38
2019-04-30T09:44:23.962Z,11.25
2019-04-30T09:46:53.937Z,10.82
2019-04-30T09:49:24.039Z,10.82
2019-04-30T09:51:54.050Z,10.40
2019-04-30T09:54:24.346Z,10.58
2019-04-30T09:56:54.625Z,9.90
2019-04-30T09:59:24.545Z,9.78
2019-04-30T10:01:55.393Z,9.83
2019-04-30T10:04:25.769Z,9.90
2019-04-30T10:06:57.192Z,10.48
2019-04-30T10:09:29.225Z,9.70
2019-04-30T10:12:19.394Z,9.70
2019-04-30T10:14:49.504Z,9.55
2019-04-30T10:17:48.368Z,9.63
2019-04-30T10:20:21.782Z,9.95
2019-04-30T10:22:51.800Z,8.98
2019-04-30T10:25:21.797Z,10.38
2019-04-30T10:27:51.917Z,9.38
2019-04-30T10:30:24.934Z,10.28
2019-04-30T10:32:55.226Z,9.63
2019-04-30T10:35:25.215Z,9.55
2019-04-30T10:37:55.277Z,9.03
2019-04-30T10:40:25.577Z,9.93
2019-04-30T10:42:55.683Z,8.95
2019-04-30T10:45:25.685Z,8.40
2019-04-30T10:47:55.750Z,8.95
2019-04-30T10:50:26.766Z,8.18
2019-04-30T10:52:56.851Z,7.62
2019-04-30T10:55:28.698Z,8.75
2019-04-30T10:57:59.326Z,8.18
2019-04-30T11:00:40.636Z,7.45
2019-04-30T11:03:19.225Z,7.67
2019-04-30T11:05:42.623Z,7.80
2019-04-30T11:08:15.820Z,7.70
2019-04-30T11:10:50.103Z,7.70
2019-04-30T11:13:22.594Z,7.17
2019-04-30T11:15:52.697Z,7.65
2019-04-30T11:18:23.011Z,7.78
2019-04-30T11:20:53.245Z,6.90
2019-04-30T11:23:23.455Z,7.25
2019-04-30T11:25:54.322Z,6.75
2019-04-30T11:28:25.308Z,6.55
2019-04-30T11:31:11.431Z,6.90
2019-04-30T11:33:41.729Z,6.08
2019-04-30T11:36:12.008Z,6.20
2019-04-30T11:38:42.024Z,6.22
2019-04-30T11:41:13.749Z,5.95
2019-04-30T11:43:43.865Z,6.37
2019-04-30T11:47:09.551Z,6.42
2019-04-30T11:49:39.649Z,6.58
2019-04-30T11:52:09.744Z,6.70
2019-04-30T11:54:48.950Z,6.97
2019-04-30T11:57:11.693Z,6.10
2019-04-30T11:59:41.734Z,6.47
2019-04-30T12:02:21.189Z,5.85
2019-04-30T12:04:51.482Z,5.55
2019-04-30T12:07:43.787Z,7.35
2019-04-30T12:10:35.881Z,7.17
2019-04-30T12:13:09.604Z,6.97
2019-04-30T12:15:39.899Z,6.55
2019-04-30T12:18:10.182Z,6.40
2019-04-30T12:20:40.871Z,6.72
2019-04-30T12:23:11.923Z,6.15
2019-04-30T12:25:42.119Z,5.92
2019-04-30T12:28:12.163Z,6.25
2019-04-30T12:30:42.165Z,7.00
2019-04-30T12:33:12.305Z,6.25
2019-04-30T12:35:42.383Z,5.50
2019-04-30T12:38:12.408Z,5.62
2019-04-30T12:40:42.420Z,5.72
2019-04-30T12:43:12.437Z,5.05
2019-04-30T12:45:42.439Z,5.95
2019-04-30T12:48:18.532Z,6.50
2019-04-30T12:51:06.986Z,6.62
2019-04-30T12:53:59.261Z,6.25
2019-04-30T12:56:57.449Z,5.85
2019-04-30T12:59:28.583Z,5.80
2019-04-30T13:01:59.318Z,5.47
2019-04-30T13:04:29.477Z,6.37
2019-04-30T13:07:02.141Z,6.12
2019-04-30T13:09:31.802Z,6.22
2019-04-30T13:12:02.579Z,6.75
2019-04-30T13:14:35.801Z,6.25
2019-04-30T13:17:07.297Z,7.37
2019-04-30T13:19:36.547Z,6.65
2019-04-30T13:22:06.530Z,6.03
2019-04-30T13:24:36.718Z,6.28
2019-04-30T13:27:06.833Z,6.85
2019-04-30T13:29:45.601Z,6.53
2019-04-30T13:32:27.312Z,5.92
2019-04-30T13:34:51.913Z,6.50
2019-04-30T13:37:21.878Z,6.47
2019-04-30T13:40:02.208Z,6.08
2019-04-30T13:42:39.101Z,6.83
2019-04-30T13:45:09.242Z,6.20
2019-04-30T13:47:39.390Z,6.42
2019-04-30T13:50:09.652Z,6.47
2019-04-30T13:52:39.676Z,6.67
2019-04-30T13:55:10.995Z,6.87
2019-04-30T13:57:41.259Z,6.28
2019-04-30T14:00:13.890Z,6.12
2019-04-30T14:02:50.209Z,7.35
2019-04-30T14:05:21.858Z,6.65
2019-04-30T14:08:20.017Z,6.12
2019-04-30T14:10:50.301Z,6.83
2019-04-30T14:13:22.929Z,7.00
2019-04-30T14:15:53.951Z,6.78
2019-04-30T14:18:30.874Z,6.33
2019-04-30T14:20:56.088Z,6.37
2019-04-30T14:23:26.097Z,7.05
2019-04-30T14:25:56.977Z,6.62
2019-04-30T14:28:29.057Z,6.42
2019-04-30T14:30:58.946Z,6.67
2019-04-30T14:33:31.773Z,7.03
2019-04-30T14:36:01.785Z,6.87
2019-04-30T14:38:31.801Z,7.00
2019-04-30T14:41:02.748Z,6.87
2019-04-30T14:43:48.450Z,6.67
2019-04-30T14:46:41.387Z,6.97
2019-04-30T14:49:27.266Z,6.10
2019-04-30T14:51:59.539Z,6.85
2019-04-30T14:54:45.105Z,6.90
2019-04-30T14:57:33.064Z,7.83
2019-04-30T15:00:29.346Z,7.17
2019-04-30T15:03:06.244Z,7.05
2019-04-30T15:05:40.437Z,6.97
2019-04-30T15:08:08.630Z,7.55
2019-04-30T15:10:39.021Z,7.58
2019-04-30T15:13:09.757Z,7.65
2019-04-30T15:15:39.935Z,7.30
2019-04-30T15:18:10.029Z,7.37
2019-04-30T15:20:40.053Z,8.08
2019-04-30T15:23:21.268Z,7.40
2019-04-30T15:25:49.823Z,7.03
2019-04-30T15:28:20.137Z,7.08
2019-04-30T15:30:50.305Z,7.45
2019-04-30T15:33:42.317Z,7.97
2019-04-30T15:36:12.341Z,7.35
2019-04-30T15:39:13.586Z,8.40
2019-04-30T15:41:43.784Z,7.83
2019-04-30T15:44:14.150Z,7.20
2019-04-30T15:46:44.213Z,7.85
2019-04-30T15:49:14.420Z,7.65
2019-04-30T15:51:44.563Z,7.40
2019-04-30T15:54:14.636Z,7.40
2019-04-30T15:56:44.617Z,7.75
2019-04-30T15:59:26.420Z,7.42
2019-04-30T16:01:59.655Z,7.80
2019-04-30T16:04:49.233Z,7.85
2019-04-30T16:07:19.732Z,7.58
2019-04-30T16:10:09.107Z,7.85
2019-04-30T16:12:58.947Z,7.75
2019-04-30T16:15:29.807Z,7.67
2019-04-30T16:18:01.912Z,8.13
2019-04-30T16:20:31.961Z,7.75
2019-04-30T16:23:01.971Z,7.65
2019-04-30T16:25:32.137Z,8.03
2019-04-30T16:28:02.285Z,7.40
2019-04-30T16:30:33.184Z,6.95
2019-04-30T16:33:03.195Z,7.37
2019-04-30T16:35:33.221Z,7.55
2019-04-30T16:38:03.608Z,7.45
2019-04-30T16:40:34.797Z,7.45
2019-04-30T16:43:04.894Z,7.15
2019-04-30T16:45:38.828Z,7.65
2019-04-30T16:48:10.095Z,8.13
2019-04-30T16:50:40.430Z,8.23
2019-04-30T16:53:11.925Z,8.18
2019-04-30T16:55:41.998Z,7.22
2019-04-30T16:58:12.028Z,7.72
2019-04-30T17:00:42.324Z,8.18
2019-04-30T17:03:21.617Z,7.75
2019-04-30T17:05:59.572Z,8.10
2019-04-30T17:08:34.571Z,8.20
2019-04-30T17:11:32.893Z,7.87
2019-04-30T17:14:05.434Z,8.65
2019-04-30T17:16:35.772Z,8.00
2019-04-30T17:19:08.551Z,7.12
2019-04-30T17:21:38.444Z,7.58
2019-04-30T17:24:08.836Z,7.92
2019-04-30T17:26:39.271Z,8.28
2019-04-30T17:29:09.663Z,7.62
2019-04-30T17:31:40.449Z,7.20
2019-04-30T17:34:10.517Z,7.47
2019-04-30T17:36:40.481Z,7.80
2019-04-30T17:39:14.585Z,7.58
2019-04-30T17:41:45.018Z,7.47
2019-04-30T17:44:15.070Z,7.58
2019-04-30T17:46:46.045Z,9.23
2019-04-30T17:49:16.100Z,8.95
2019-04-30T17:51:46.121Z,8.98
2019-04-30T17:54:16.458Z,8.08
2019-04-30T17:56:46.769Z,7.53
2019-04-30T17:59:24.233Z,8.18
2019-04-30T18:02:01.387Z,7.00
2019-04-30T18:04:31.487Z,7.60
2019-04-30T18:07:01.863Z,8.43
2019-04-30T18:09:31.957Z,9.53
2019-04-30T18:12:02.242Z,10.23
2019-04-30T18:14:32.249Z,8.73
2019-04-30T18:17:02.338Z,7.97
2019-04-30T18:19:57.284Z,6.80
2019-04-30T18:22:49.084Z,7.80
2019-04-30T18:25:30.294Z,7.65
2019-04-30T18:28:01.114Z,7.90
2019-04-30T18:30:34.292Z,7.60
2019-04-30T18:33:05.876Z,7.58
2019-04-30T18:35:36.301Z,7.35
2019-04-30T18:38:06.690Z,8.03
2019-04-30T18:40:37.051Z,9.35
2019-04-30T18:43:07.159Z,8.88
2019-04-30T18:45:39.567Z,8.73
2019-04-30T18:48:09.800Z,7.72
2019-04-30T18:50:40.133Z,8.20
2019-04-30T18:53:15.658Z,7.33
2019-04-30T18:55:45.825Z,7.78
2019-04-30T18:58:16.345Z,8.90
2019-04-30T19:00:46.529Z,7.92
2019-04-30T19:03:19.287Z,7.85
2019-04-30T19:05:52.970Z,8.23
2019-04-30T19:08:39.375Z,9.18
2019-04-30T19:11:23.973Z,7.95
2019-04-30T19:14:03.529Z,7.95
2019-04-30T19:17:02.037Z,8.18
2019-04-30T19:20:01.489Z,8.08
2019-04-30T19:22:32.037Z,8.80
2019-04-30T19:25:04.412Z,8.18
2019-04-30T19:27:34.061Z,9.73
2019-04-30T19:30:04.692Z,8.65
2019-04-30T19:32:34.750Z,9.13
2019-04-30T19:35:05.772Z,9.53
2019-04-30T19:37:35.964Z,9.30
2019-04-30T19:40:08.935Z,8.65
2019-04-30T19:42:39.571Z,9.00
2019-04-30T19:45:12.391Z,10.13
2019-04-30T19:47:41.992Z,9.65
2019-04-30T19:50:14.082Z,9.98
2019-04-30T19:52:44.394Z,9.28
2019-04-30T19:55:14.487Z,10.68
2019-04-30T19:57:44.720Z,10.98
2019-04-30T20:00:15.131Z,15.78
2019-04-30T20:02:46.148Z,9.60
2019-04-30T20:05:16.680Z,9.38
2019-04-30T20:07:46.621Z,9.45
2019-04-30T20:10:16.581Z,10.20
2019-04-30T20:12:46.751Z,8.98
2019-04-30T20:15:21.530Z,9.03
2019-04-30T20:17:49.871Z,9.40
2019-04-30T20:20:20.049Z,9.10
2019-04-30T20:22:51.939Z,9.95
2019-04-30T20:25:22.154Z,9.33
2019-04-30T20:27:52.158Z,10.32
2019-04-30T20:30:22.225Z,10.08
2019-04-30T20:32:52.244Z,10.18
2019-04-30T20:35:22.259Z,11.55
2019-04-30T20:38:10.090Z,12.70
2019-04-30T20:40:43.711Z,12.58
2019-04-30T20:43:13.415Z,12.58
2019-04-30T20:45:43.412Z,12.23
2019-04-30T20:48:13.477Z,11.30
2019-04-30T20:50:43.491Z,10.28
2019-04-30T20:53:13.532Z,9.28
2019-04-30T20:55:43.524Z,9.80
2019-04-30T20:58:13.577Z,10.13
2019-04-30T21:00:43.717Z,8.98
2019-04-30T21:03:13.748Z,9.73
2019-04-30T21:05:44.352Z,9.80
2019-04-30T21:08:14.343Z,9.65
2019-04-30T21:10:44.355Z,11.35
2019-04-30T21:13:14.337Z,9.73
2019-04-30T21:15:44.329Z,10.28
2019-04-30T21:18:14.157Z,9.23
2019-04-30T21:20:44.242Z,10.35
2019-04-30T21:23:14.231Z,9.53
2019-04-30T21:25:44.263Z,9.58
2019-04-30T21:28:14.425Z,11.08
2019-04-30T21:30:44.633Z,9.45
2019-04-30T21:33:20.301Z,10.03
2019-04-30T21:35:55.987Z,11.70
2019-04-30T21:38:26.394Z,10.38
2019-04-30T21:40:58.727Z,10.98
2019-04-30T21:43:28.346Z,10.43
2019-04-30T21:45:59.358Z,9.98
2019-04-30T21:48:29.667Z,11.08
2019-04-30T21:50:59.668Z,10.78
2019-04-30T21:53:29.761Z,9.15
2019-04-30T21:56:00.052Z,10.40
2019-04-30T21:58:30.314Z,10.23
2019-04-30T22:01:25.825Z,10.10
2019-04-30T22:03:56.252Z,10.93
2019-04-30T22:06:26.633Z,11.53
2019-04-30T22:08:58.456Z,11.05
2019-04-30T22:11:29.678Z,11.70
2019-04-30T22:13:59.966Z,10.88
2019-04-30T22:16:30.249Z,10.90
2019-04-30T22:19:00.265Z,11.30
2019-04-30T22:21:30.656Z,11.33
2019-04-30T22:24:00.702Z,11.45
2019-04-30T22:26:30.646Z,11.08
2019-04-30T22:29:00.681Z,11.03
2019-04-30T22:31:30.670Z,11.90
2019-04-30T22:34:01.146Z,12.03
2019-04-30T22:36:44.098Z,11.95
2019-04-30T22:39:33.147Z,13.83
2019-04-30T22:42:36.692Z,12.33
2019-04-30T22:45:11.508Z,11.95
2019-04-30T22:47:41.961Z,11.33
2019-04-30T22:50:12.270Z,11.83
2019-04-30T22:52:43.111Z,12.00
2019-04-30T22:55:13.203Z,11.80
2019-04-30T22:57:43.517Z,11.93
2019-04-30T23:00:17.652Z,12.95
2019-04-30T23:02:59.623Z,12.95
2019-04-30T23:05:29.593Z,12.23
2019-04-30T23:08:01.720Z,13.25
2019-04-30T23:10:31.694Z,12.55
2019-04-30T23:13:01.704Z,12.60
2019-04-30T23:15:32.121Z,11.70
2019-04-30T23:18:02.147Z,12.00
2019-04-30T23:20:32.205Z,12.60
2019-04-30T23:23:02.215Z,11.75
2019-04-30T23:25:32.224Z,12.00
2019-04-30T23:28:03.373Z,13.32
2019-04-30T23:30:33.475Z,12.75
2019-04-30T23:33:03.481Z,13.10
2019-04-30T23:35:33.784Z,13.03
2019-04-30T23:38:03.811Z,13.15
2019-04-30T23:40:48.454Z,11.85
2019-04-30T23:43:19.079Z,12.37
2019-04-30T23:45:49.340Z,12.88
2019-04-30T23:48:20.457Z,12.95
2019-04-30T23:50:50.444Z,12.60
2019-04-30T23:53:20.461Z,13.30
2019-04-30T23:55:50.809Z,11.55
2019-04-30T23:58:20.832Z,12.95
